sensor_id;sensor_type;location;lat;lon;timestamp;temperature;humidity
67750;DHT22;54550;48.838;8.828;2023-10-08T00:02:24;11.80;99.90
67750;DHT22;54550;48.838;8.828;2023-10-08T00:04:51;12.10;99.90
67750;DHT22;54550;48.838;8.828;2023-10-08T00:07:17;12.10;99.90
67750;DHT22;54550;48.838;8.828;2023-10-08T00:09:47;12.20;99.90
67750;DHT22;54550;48.838;8.828;2023-10-08T00:12:13;12.20;99.90
67750;DHT22;54550;48.838;8.828;2023-10-08T00:14:39;12.30;99.90
67750;DHT22;54550;48.838;8.828;2023-10-08T00:17:12;12.20;99.90
67750;DHT22;54550;48.838;8.828;2023-10-08T00:19:38;12.30;99.90
67750;DHT22;54550;48.838;8.828;2023-10-08T00:22:05;12.20;99.90
67750;DHT22;54550;48.838;8.828;2023-10-08T00:24:32;12.20;99.90
67750;DHT22;54550;48.838;8.828;2023-10-08T00:26:59;12.10;99.90
67750;DHT22;54550;48.838;8.828;2023-10-08T00:29:25;12.20;99.90
67750;DHT22;54550;48.838;8.828;2023-10-08T00:31:52;12.20;99.90
67750;DHT22;54550;48.838;8.828;2023-10-08T00:34:22;12.20;99.90
67750;DHT22;54550;48.838;8.828;2023-10-08T00:36:50;12.30;99.90
67750;DHT22;54550;48.838;8.828;2023-10-08T00:39:16;12.20;99.90
67750;DHT22;54550;48.838;8.828;2023-10-08T00:41:48;12.30;99.90
67750;DHT22;54550;48.838;8.828;2023-10-08T00:44:23;12.30;99.90
67750;DHT22;54550;48.838;8.828;2023-10-08T00:47:04;12.30;99.90
67750;DHT22;54550;48.838;8.828;2023-10-08T00:49:30;12.40;99.90
67750;DHT22;54550;48.838;8.828;2023-10-08T00:52:12;12.60;99.90
67750;DHT22;54550;48.838;8.828;2023-10-08T00:54:39;12.80;99.90
67750;DHT22;54550;48.838;8.828;2023-10-08T00:57:23;12.80;99.90
67750;DHT22;54550;48.838;8.828;2023-10-08T00:59:51;12.90;99.90
67750;DHT22;54550;48.838;8.828;2023-10-08T01:02:20;12.90;99.90
67750;DHT22;54550;48.838;8.828;2023-10-08T01:04:50;12.90;99.90
67750;DHT22;54550;48.838;8.828;2023-10-08T01:07:16;12.80;99.90
67750;DHT22;54550;48.838;8.828;2023-10-08T01:09:44;12.80;99.90
67750;DHT22;54550;48.838;8.828;2023-10-08T01:12:22;12.70;99.90
67750;DHT22;54550;48.838;8.828;2023-10-08T01:15:05;12.70;99.90
67750;DHT22;54550;48.838;8.828;2023-10-08T01:18:04;12.50;99.90
67750;DHT22;54550;48.838;8.828;2023-10-08T01:20:40;12.40;99.90
67750;DHT22;54550;48.838;8.828;2023-10-08T01:23:10;12.40;99.90
67750;DHT22;54550;48.838;8.828;2023-10-08T01:25:40;12.50;99.90
67750;DHT22;54550;48.838;8.828;2023-10-08T01:28:07;12.50;99.90
67750;DHT22;54550;48.838;8.828;2023-10-08T01:30:43;12.70;99.90
67750;DHT22;54550;48.838;8.828;2023-10-08T01:33:13;12.60;99.90
67750;DHT22;54550;48.838;8.828;2023-10-08T01:35:41;12.40;99.90
67750;DHT22;54550;48.838;8.828;2023-10-08T01:38:07;12.30;99.90
67750;DHT22;54550;48.838;8.828;2023-10-08T01:40:39;12.10;99.90
67750;DHT22;54550;48.838;8.828;2023-10-08T01:43:04;12.00;99.90
67750;DHT22;54550;48.838;8.828;2023-10-08T01:45:30;11.80;99.90
67750;DHT22;54550;48.838;8.828;2023-10-08T01:47:57;11.60;99.90
67750;DHT22;54550;48.838;8.828;2023-10-08T01:50:23;11.50;99.90
67750;DHT22;54550;48.838;8.828;2023-10-08T01:52:55;11.40;99.90
67750;DHT22;54550;48.838;8.828;2023-10-08T01:55:21;11.50;99.90
67750;DHT22;54550;48.838;8.828;2023-10-08T01:57:49;11.60;99.90
67750;DHT22;54550;48.838;8.828;2023-10-08T02:00:16;11.70;99.90
67750;DHT22;54550;48.838;8.828;2023-10-08T02:02:49;11.70;99.90
67750;DHT22;54550;48.838;8.828;2023-10-08T02:05:19;11.70;99.90
67750;DHT22;54550;48.838;8.828;2023-10-08T02:07:46;11.70;99.90
67750;DHT22;54550;48.838;8.828;2023-10-08T02:10:12;11.80;99.90
67750;DHT22;54550;48.838;8.828;2023-10-08T02:12:39;11.90;99.90
67750;DHT22;54550;48.838;8.828;2023-10-08T02:15:06;12.00;99.90
67750;DHT22;54550;48.838;8.828;2023-10-08T02:17:33;12.00;99.90
67750;DHT22;54550;48.838;8.828;2023-10-08T02:19:58;12.20;99.90
67750;DHT22;54550;48.838;8.828;2023-10-08T02:22:24;12.10;99.90
67750;DHT22;54550;48.838;8.828;2023-10-08T02:24:50;12.20;99.90
67750;DHT22;54550;48.838;8.828;2023-10-08T02:27:16;12.20;99.90
67750;DHT22;54550;48.838;8.828;2023-10-08T02:29:42;12.30;99.90
67750;DHT22;54550;48.838;8.828;2023-10-08T02:32:08;12.20;99.90
67750;DHT22;54550;48.838;8.828;2023-10-08T02:34:34;12.20;99.90
67750;DHT22;54550;48.838;8.828;2023-10-08T02:37:01;12.10;99.90
67750;DHT22;54550;48.838;8.828;2023-10-08T02:39:29;11.90;99.90
67750;DHT22;54550;48.838;8.828;2023-10-08T02:41:56;11.80;99.90
67750;DHT22;54550;48.838;8.828;2023-10-08T02:44:25;11.80;99.90
67750;DHT22;54550;48.838;8.828;2023-10-08T02:47:03;11.70;99.90
67750;DHT22;54550;48.838;8.828;2023-10-08T02:49:30;11.70;99.90
67750;DHT22;54550;48.838;8.828;2023-10-08T02:51:57;11.70;99.90
67750;DHT22;54550;48.838;8.828;2023-10-08T02:54:23;11.80;99.90
67750;DHT22;54550;48.838;8.828;2023-10-08T02:56:57;11.70;99.90
67750;DHT22;54550;48.838;8.828;2023-10-08T02:59:33;11.80;99.90
67750;DHT22;54550;48.838;8.828;2023-10-08T03:02:09;11.90;99.90
67750;DHT22;54550;48.838;8.828;2023-10-08T03:04:42;11.90;99.90
67750;DHT22;54550;48.838;8.828;2023-10-08T03:07:14;11.90;99.90
67750;DHT22;54550;48.838;8.828;2023-10-08T03:10:12;11.90;99.90
67750;DHT22;54550;48.838;8.828;2023-10-08T03:12:45;12.00;99.90
67750;DHT22;54550;48.838;8.828;2023-10-08T03:15:15;12.10;99.90
67750;DHT22;54550;48.838;8.828;2023-10-08T03:17:55;12.30;99.90
67750;DHT22;54550;48.838;8.828;2023-10-08T03:20:23;12.20;99.90
67750;DHT22;54550;48.838;8.828;2023-10-08T03:22:56;12.20;99.90
67750;DHT22;54550;48.838;8.828;2023-10-08T03:25:25;12.10;99.90
67750;DHT22;54550;48.838;8.828;2023-10-08T03:27:52;12.00;99.90
67750;DHT22;54550;48.838;8.828;2023-10-08T03:30:19;12.20;99.90
67750;DHT22;54550;48.838;8.828;2023-10-08T03:32:45;12.30;99.90
67750;DHT22;54550;48.838;8.828;2023-10-08T03:35:11;12.20;99.90
67750;DHT22;54550;48.838;8.828;2023-10-08T03:37:38;12.00;99.90
67750;DHT22;54550;48.838;8.828;2023-10-08T03:40:10;11.80;99.90
67750;DHT22;54550;48.838;8.828;2023-10-08T03:42:51;11.60;99.90
67750;DHT22;54550;48.838;8.828;2023-10-08T03:45:17;11.40;99.90
67750;DHT22;54550;48.838;8.828;2023-10-08T03:48:02;11.30;99.90
67750;DHT22;54550;48.838;8.828;2023-10-08T03:50:32;11.30;99.90
67750;DHT22;54550;48.838;8.828;2023-10-08T03:53:07;11.20;99.90
67750;DHT22;54550;48.838;8.828;2023-10-08T03:55:39;11.10;99.90
67750;DHT22;54550;48.838;8.828;2023-10-08T03:58:08;11.10;99.90
67750;DHT22;54550;48.838;8.828;2023-10-08T04:00:39;11.00;99.90
67750;DHT22;54550;48.838;8.828;2023-10-08T04:03:08;11.00;99.90
67750;DHT22;54550;48.838;8.828;2023-10-08T04:05:37;11.00;99.90
67750;DHT22;54550;48.838;8.828;2023-10-08T04:08:09;11.00;99.90
67750;DHT22;54550;48.838;8.828;2023-10-08T04:11:05;11.20;99.90
67750;DHT22;54550;48.838;8.828;2023-10-08T04:13:34;11.30;99.90
67750;DHT22;54550;48.838;8.828;2023-10-08T04:16:04;11.40;99.90
67750;DHT22;54550;48.838;8.828;2023-10-08T04:18:30;11.50;99.90
67750;DHT22;54550;48.838;8.828;2023-10-08T04:20:55;11.60;99.90
67750;DHT22;54550;48.838;8.828;2023-10-08T04:23:30;11.60;99.90
67750;DHT22;54550;48.838;8.828;2023-10-08T04:25:56;11.70;99.90
67750;DHT22;54550;48.838;8.828;2023-10-08T04:28:23;11.70;99.90
67750;DHT22;54550;48.838;8.828;2023-10-08T04:30:53;11.80;99.90
67750;DHT22;54550;48.838;8.828;2023-10-08T04:33:19;11.70;99.90
67750;DHT22;54550;48.838;8.828;2023-10-08T04:35:46;11.60;99.90
67750;DHT22;54550;48.838;8.828;2023-10-08T04:38:19;11.60;99.90
67750;DHT22;54550;48.838;8.828;2023-10-08T04:40:50;11.60;99.90
67750;DHT22;54550;48.838;8.828;2023-10-08T04:43:23;11.50;99.90
67750;DHT22;54550;48.838;8.828;2023-10-08T04:45:57;11.50;99.90
67750;DHT22;54550;48.838;8.828;2023-10-08T04:48:23;11.50;99.90
67750;DHT22;54550;48.838;8.828;2023-10-08T04:50:51;11.50;99.90
67750;DHT22;54550;48.838;8.828;2023-10-08T04:53:28;11.50;99.90
67750;DHT22;54550;48.838;8.828;2023-10-08T04:56:00;11.60;99.90
67750;DHT22;54550;48.838;8.828;2023-10-08T04:58:45;11.70;99.90
67750;DHT22;54550;48.838;8.828;2023-10-08T05:01:18;11.70;99.90
67750;DHT22;54550;48.838;8.828;2023-10-08T05:03:44;11.90;99.90
67750;DHT22;54550;48.838;8.828;2023-10-08T05:06:32;12.10;99.90
67750;DHT22;54550;48.838;8.828;2023-10-08T05:09:11;12.40;99.90
67750;DHT22;54550;48.838;8.828;2023-10-08T05:11:37;12.80;99.90
67750;DHT22;54550;48.838;8.828;2023-10-08T05:14:32;12.90;99.90
67750;DHT22;54550;48.838;8.828;2023-10-08T05:17:08;13.00;99.90
67750;DHT22;54550;48.838;8.828;2023-10-08T05:19:40;13.30;99.90
67750;DHT22;54550;48.838;8.828;2023-10-08T05:22:08;13.50;99.90
67750;DHT22;54550;48.838;8.828;2023-10-08T05:24:46;13.60;99.90
67750;DHT22;54550;48.838;8.828;2023-10-08T05:27:35;13.40;99.90
67750;DHT22;54550;48.838;8.828;2023-10-08T05:30:18;13.30;99.90
67750;DHT22;54550;48.838;8.828;2023-10-08T05:32:44;13.10;99.90
67750;DHT22;54550;48.838;8.828;2023-10-08T05:35:28;13.00;99.90
67750;DHT22;54550;48.838;8.828;2023-10-08T05:38:15;12.90;99.90
67750;DHT22;54550;48.838;8.828;2023-10-08T05:40:47;13.00;99.90
67750;DHT22;54550;48.838;8.828;2023-10-08T05:43:26;13.50;99.90
67750;DHT22;54550;48.838;8.828;2023-10-08T05:46:05;14.00;99.90
67750;DHT22;54550;48.838;8.828;2023-10-08T05:48:55;14.50;99.90
67750;DHT22;54550;48.838;8.828;2023-10-08T05:51:38;14.70;99.90
67750;DHT22;54550;48.838;8.828;2023-10-08T05:54:19;14.70;99.90
67750;DHT22;54550;48.838;8.828;2023-10-08T05:57:07;14.80;99.90
67750;DHT22;54550;48.838;8.828;2023-10-08T05:59:46;15.10;99.90
67750;DHT22;54550;48.838;8.828;2023-10-08T06:02:21;15.40;99.90
67750;DHT22;54550;48.838;8.828;2023-10-08T06:05:01;15.40;99.90
67750;DHT22;54550;48.838;8.828;2023-10-08T06:07:40;15.40;99.90
67750;DHT22;54550;48.838;8.828;2023-10-08T06:10:21;15.30;99.90
67750;DHT22;54550;48.838;8.828;2023-10-08T06:13:14;15.00;99.90
67750;DHT22;54550;48.838;8.828;2023-10-08T06:15:52;14.70;99.90
67750;DHT22;54550;48.838;8.828;2023-10-08T06:18:30;14.50;99.90
67750;DHT22;54550;48.838;8.828;2023-10-08T06:20:58;14.30;99.90
67750;DHT22;54550;48.838;8.828;2023-10-08T06:23:25;14.20;99.90
67750;DHT22;54550;48.838;8.828;2023-10-08T06:25:52;14.10;99.90
67750;DHT22;54550;48.838;8.828;2023-10-08T06:28:30;14.10;99.90
67750;DHT22;54550;48.838;8.828;2023-10-08T06:30:56;14.10;99.90
67750;DHT22;54550;48.838;8.828;2023-10-08T06:33:23;14.00;99.90
67750;DHT22;54550;48.838;8.828;2023-10-08T06:35:59;14.00;99.90
67750;DHT22;54550;48.838;8.828;2023-10-08T06:38:32;14.10;99.90
67750;DHT22;54550;48.838;8.828;2023-10-08T06:41:02;14.40;99.90
67750;DHT22;54550;48.838;8.828;2023-10-08T06:43:41;14.50;99.90
67750;DHT22;54550;48.838;8.828;2023-10-08T06:46:16;14.50;99.90
67750;DHT22;54550;48.838;8.828;2023-10-08T06:48:45;14.50;99.90
67750;DHT22;54550;48.838;8.828;2023-10-08T06:51:11;14.60;99.90
67750;DHT22;54550;48.838;8.828;2023-10-08T06:53:44;14.70;99.90
67750;DHT22;54550;48.838;8.828;2023-10-08T06:56:14;14.70;99.90
67750;DHT22;54550;48.838;8.828;2023-10-08T06:58:41;14.90;99.90
67750;DHT22;54550;48.838;8.828;2023-10-08T07:01:14;15.00;99.90
67750;DHT22;54550;48.838;8.828;2023-10-08T07:03:47;15.00;99.90
67750;DHT22;54550;48.838;8.828;2023-10-08T07:06:14;15.10;99.90
67750;DHT22;54550;48.838;8.828;2023-10-08T07:08:51;15.30;99.90
67750;DHT22;54550;48.838;8.828;2023-10-08T07:11:22;15.40;99.90
67750;DHT22;54550;48.838;8.828;2023-10-08T07:13:48;15.60;99.90
67750;DHT22;54550;48.838;8.828;2023-10-08T07:16:14;15.70;99.90
67750;DHT22;54550;48.838;8.828;2023-10-08T07:18:43;15.80;99.90
67750;DHT22;54550;48.838;8.828;2023-10-08T07:21:20;15.90;99.90
67750;DHT22;54550;48.838;8.828;2023-10-08T07:23:54;16.10;99.90
67750;DHT22;54550;48.838;8.828;2023-10-08T07:26:25;16.30;99.90
67750;DHT22;54550;48.838;8.828;2023-10-08T07:28:51;16.50;99.90
67750;DHT22;54550;48.838;8.828;2023-10-08T07:31:22;16.70;99.90
67750;DHT22;54550;48.838;8.828;2023-10-08T07:33:53;16.90;99.90
67750;DHT22;54550;48.838;8.828;2023-10-08T07:36:28;17.20;99.90
67750;DHT22;54550;48.838;8.828;2023-10-08T07:38:56;17.60;99.90
67750;DHT22;54550;48.838;8.828;2023-10-08T07:41:22;17.80;99.90
67750;DHT22;54550;48.838;8.828;2023-10-08T07:43:48;18.00;99.90
67750;DHT22;54550;48.838;8.828;2023-10-08T07:46:21;18.10;99.90
67750;DHT22;54550;48.838;8.828;2023-10-08T07:48:47;18.10;99.90
67750;DHT22;54550;48.838;8.828;2023-10-08T07:51:14;18.00;99.00
67750;DHT22;54550;48.838;8.828;2023-10-08T07:53:40;17.80;99.40
67750;DHT22;54550;48.838;8.828;2023-10-08T07:56:07;17.70;99.90
67750;DHT22;54550;48.838;8.828;2023-10-08T07:58:34;17.60;99.90
67750;DHT22;54550;48.838;8.828;2023-10-08T08:01:06;17.50;99.90
67750;DHT22;54550;48.838;8.828;2023-10-08T08:03:36;17.40;99.90
67750;DHT22;54550;48.838;8.828;2023-10-08T08:06:05;17.50;99.90
67750;DHT22;54550;48.838;8.828;2023-10-08T08:08:33;17.90;99.90
67750;DHT22;54550;48.838;8.828;2023-10-08T08:10:59;18.90;99.50
67750;DHT22;54550;48.838;8.828;2023-10-08T08:13:29;19.80;97.70
67750;DHT22;54550;48.838;8.828;2023-10-08T08:15:55;20.90;97.10
67750;DHT22;54550;48.838;8.828;2023-10-08T08:18:25;21.60;96.40
67750;DHT22;54550;48.838;8.828;2023-10-08T08:20:50;22.70;95.30
67750;DHT22;54550;48.838;8.828;2023-10-08T08:23:16;23.30;94.60
67750;DHT22;54550;48.838;8.828;2023-10-08T08:25:43;23.70;94.90
67750;DHT22;54550;48.838;8.828;2023-10-08T08:28:21;23.80;93.90
67750;DHT22;54550;48.838;8.828;2023-10-08T08:30:50;23.80;93.60
67750;DHT22;54550;48.838;8.828;2023-10-08T08:33:18;23.40;93.00
67750;DHT22;54550;48.838;8.828;2023-10-08T08:35:58;23.20;93.00
67750;DHT22;54550;48.838;8.828;2023-10-08T08:38:26;23.00;92.90
67750;DHT22;54550;48.838;8.828;2023-10-08T08:41:02;22.90;93.40
67750;DHT22;54550;48.838;8.828;2023-10-08T08:43:35;22.90;93.80
67750;DHT22;54550;48.838;8.828;2023-10-08T08:46:04;23.20;93.10
67750;DHT22;54550;48.838;8.828;2023-10-08T08:48:36;23.20;92.70
67750;DHT22;54550;48.838;8.828;2023-10-08T08:51:03;23.30;92.80
67750;DHT22;54550;48.838;8.828;2023-10-08T08:53:35;23.00;92.80
67750;DHT22;54550;48.838;8.828;2023-10-08T08:56:02;22.50;92.90
67750;DHT22;54550;48.838;8.828;2023-10-08T08:58:33;22.10;93.60
67750;DHT22;54550;48.838;8.828;2023-10-08T09:01:00;21.60;93.70
67750;DHT22;54550;48.838;8.828;2023-10-08T09:03:25;21.20;94.60
67750;DHT22;54550;48.838;8.828;2023-10-08T09:05:56;21.00;95.00
67750;DHT22;54550;48.838;8.828;2023-10-08T09:08:22;20.90;95.00
67750;DHT22;54550;48.838;8.828;2023-10-08T09:10:50;21.00;95.50
67750;DHT22;54550;48.838;8.828;2023-10-08T09:13:22;21.40;95.60
67750;DHT22;54550;48.838;8.828;2023-10-08T09:15:49;22.10;94.10
67750;DHT22;54550;48.838;8.828;2023-10-08T09:18:15;22.50;94.20
67750;DHT22;54550;48.838;8.828;2023-10-08T09:20:41;22.90;93.80
67750;DHT22;54550;48.838;8.828;2023-10-08T09:23:10;23.40;93.30
67750;DHT22;54550;48.838;8.828;2023-10-08T09:25:40;24.00;92.80
67750;DHT22;54550;48.838;8.828;2023-10-08T09:28:06;24.30;92.40
67750;DHT22;54550;48.838;8.828;2023-10-08T09:30:38;24.30;91.40
67750;DHT22;54550;48.838;8.828;2023-10-08T09:33:07;24.10;91.60
67750;DHT22;54550;48.838;8.828;2023-10-08T09:35:33;23.80;91.10
67750;DHT22;54550;48.838;8.828;2023-10-08T09:38:02;23.40;91.50
67750;DHT22;54550;48.838;8.828;2023-10-08T09:40:29;23.10;91.40
67750;DHT22;54550;48.838;8.828;2023-10-08T09:42:55;23.10;92.10
67750;DHT22;54550;48.838;8.828;2023-10-08T09:45:21;23.30;92.10
67750;DHT22;54550;48.838;8.828;2023-10-08T09:47:53;23.50;91.50
67750;DHT22;54550;48.838;8.828;2023-10-08T09:50:28;23.80;91.70
67750;DHT22;54550;48.838;8.828;2023-10-08T09:53:10;24.00;91.90
67750;DHT22;54550;48.838;8.828;2023-10-08T09:55:53;23.90;90.60
67750;DHT22;54550;48.838;8.828;2023-10-08T09:58:20;23.80;91.70
67750;DHT22;54550;48.838;8.828;2023-10-08T10:00:48;23.90;91.00
67750;DHT22;54550;48.838;8.828;2023-10-08T10:03:15;24.10;91.40
67750;DHT22;54550;48.838;8.828;2023-10-08T10:05:44;24.30;90.00
67750;DHT22;54550;48.838;8.828;2023-10-08T10:08:10;24.60;89.20
67750;DHT22;54550;48.838;8.828;2023-10-08T10:10:37;25.00;90.70
67750;DHT22;54550;48.838;8.828;2023-10-08T10:13:10;25.20;87.60
67750;DHT22;54550;48.838;8.828;2023-10-08T10:15:37;25.30;88.00
67750;DHT22;54550;48.838;8.828;2023-10-08T10:18:37;25.70;86.90
67750;DHT22;54550;48.838;8.828;2023-10-08T10:23:42;25.20;84.60
67750;DHT22;54550;48.838;8.828;2023-10-08T10:26:25;24.80;84.20
67750;DHT22;54550;48.838;8.828;2023-10-08T10:31:42;24.60;84.90
67750;DHT22;54550;48.838;8.828;2023-10-08T10:34:19;24.90;85.70
67750;DHT22;54550;48.838;8.828;2023-10-08T10:36:48;24.80;84.20
67750;DHT22;54550;48.838;8.828;2023-10-08T10:39:16;25.30;85.10
67750;DHT22;54550;48.838;8.828;2023-10-08T10:41:46;25.40;84.20
67750;DHT22;54550;48.838;8.828;2023-10-08T10:44:12;25.20;85.00
67750;DHT22;54550;48.838;8.828;2023-10-08T10:46:41;25.30;83.50
67750;DHT22;54550;48.838;8.828;2023-10-08T10:49:08;25.30;83.70
67750;DHT22;54550;48.838;8.828;2023-10-08T10:51:57;25.50;83.80
67750;DHT22;54550;48.838;8.828;2023-10-08T10:54:23;25.10;84.00
67750;DHT22;54550;48.838;8.828;2023-10-08T10:56:53;25.10;82.70
67750;DHT22;54550;48.838;8.828;2023-10-08T10:59:45;25.00;83.30
67750;DHT22;54550;48.838;8.828;2023-10-08T11:02:19;24.90;83.20
67750;DHT22;54550;48.838;8.828;2023-10-08T11:04:56;25.00;83.30
67750;DHT22;54550;48.838;8.828;2023-10-08T11:07:33;25.20;83.10
67750;DHT22;54550;48.838;8.828;2023-10-08T11:10:00;25.50;81.60
67750;DHT22;54550;48.838;8.828;2023-10-08T11:12:26;25.70;82.10
67750;DHT22;54550;48.838;8.828;2023-10-08T11:15:10;26.10;82.80
67750;DHT22;54550;48.838;8.828;2023-10-08T11:17:41;26.40;80.00
67750;DHT22;54550;48.838;8.828;2023-10-08T11:20:23;26.60;78.50
67750;DHT22;54550;48.838;8.828;2023-10-08T11:22:50;26.10;79.60
67750;DHT22;54550;48.838;8.828;2023-10-08T11:25:25;25.80;77.90
67750;DHT22;54550;48.838;8.828;2023-10-08T11:27:57;25.30;78.60
67750;DHT22;54550;48.838;8.828;2023-10-08T11:30:34;25.60;79.10
67750;DHT22;54550;48.838;8.828;2023-10-08T11:33:00;26.00;80.50
67750;DHT22;54550;48.838;8.828;2023-10-08T11:35:27;26.40;79.20
67750;DHT22;54550;48.838;8.828;2023-10-08T11:37:59;26.80;77.70
67750;DHT22;54550;48.838;8.828;2023-10-08T11:40:26;27.30;78.30
67750;DHT22;54550;48.838;8.828;2023-10-08T11:42:56;27.60;77.20
67750;DHT22;54550;48.838;8.828;2023-10-08T11:45:27;27.80;77.10
67750;DHT22;54550;48.838;8.828;2023-10-08T11:47:56;27.90;75.00
67750;DHT22;54550;48.838;8.828;2023-10-08T11:50:26;28.10;75.20
67750;DHT22;54550;48.838;8.828;2023-10-08T11:53:01;28.20;74.10
67750;DHT22;54550;48.838;8.828;2023-10-08T11:55:32;28.10;74.10
67750;DHT22;54550;48.838;8.828;2023-10-08T11:58:02;28.20;72.80
67750;DHT22;54550;48.838;8.828;2023-10-08T12:00:39;28.20;72.90
67750;DHT22;54550;48.838;8.828;2023-10-08T12:03:15;28.10;71.80
67750;DHT22;54550;48.838;8.828;2023-10-08T12:05:44;27.90;73.00
67750;DHT22;54550;48.838;8.828;2023-10-08T12:08:17;27.80;72.80
67750;DHT22;54550;48.838;8.828;2023-10-08T12:10:43;27.70;73.80
67750;DHT22;54550;48.838;8.828;2023-10-08T12:13:11;27.70;73.10
67750;DHT22;54550;48.838;8.828;2023-10-08T12:15:37;28.00;73.50
67750;DHT22;54550;48.838;8.828;2023-10-08T12:18:07;28.40;72.60
67750;DHT22;54550;48.838;8.828;2023-10-08T12:20:51;28.60;72.00
67750;DHT22;54550;48.838;8.828;2023-10-08T12:23:19;28.60;72.00
67750;DHT22;54550;48.838;8.828;2023-10-08T12:25:54;28.90;72.20
67750;DHT22;54550;48.838;8.828;2023-10-08T12:28:24;29.20;73.50
67750;DHT22;54550;48.838;8.828;2023-10-08T12:30:50;29.40;70.40
67750;DHT22;54550;48.838;8.828;2023-10-08T12:33:19;29.40;70.20
67750;DHT22;54550;48.838;8.828;2023-10-08T12:35:46;29.50;71.20
67750;DHT22;54550;48.838;8.828;2023-10-08T12:38:13;29.20;69.60
67750;DHT22;54550;48.838;8.828;2023-10-08T12:40:39;29.20;69.60
67750;DHT22;54550;48.838;8.828;2023-10-08T12:43:19;29.40;70.70
67750;DHT22;54550;48.838;8.828;2023-10-08T12:45:49;29.50;67.70
67750;DHT22;54550;48.838;8.828;2023-10-08T12:48:23;29.30;68.10
67750;DHT22;54550;48.838;8.828;2023-10-08T12:50:50;29.30;69.40
67750;DHT22;54550;48.838;8.828;2023-10-08T12:53:21;29.50;67.80
67750;DHT22;54550;48.838;8.828;2023-10-08T12:55:55;29.30;67.60
67750;DHT22;54550;48.838;8.828;2023-10-08T12:58:23;29.40;69.50
67750;DHT22;54550;48.838;8.828;2023-10-08T13:00:52;29.50;67.90
67750;DHT22;54550;48.838;8.828;2023-10-08T13:03:25;29.40;67.50
67750;DHT22;54550;48.838;8.828;2023-10-08T13:05:54;29.60;67.90
67750;DHT22;54550;48.838;8.828;2023-10-08T13:08:29;29.90;68.70
67750;DHT22;54550;48.838;8.828;2023-10-08T13:10:55;29.70;67.00
67750;DHT22;54550;48.838;8.828;2023-10-08T13:13:29;29.60;67.70
67750;DHT22;54550;48.838;8.828;2023-10-08T13:15:55;29.80;66.80
67750;DHT22;54550;48.838;8.828;2023-10-08T13:18:22;29.80;67.20
67750;DHT22;54550;48.838;8.828;2023-10-08T13:20:53;29.90;67.20
67750;DHT22;54550;48.838;8.828;2023-10-08T13:23:19;29.60;67.00
67750;DHT22;54550;48.838;8.828;2023-10-08T13:25:51;29.60;67.00
67750;DHT22;54550;48.838;8.828;2023-10-08T13:28:21;29.50;66.30
67750;DHT22;54550;48.838;8.828;2023-10-08T13:30:48;29.70;66.00
67750;DHT22;54550;48.838;8.828;2023-10-08T13:33:20;29.80;65.90
67750;DHT22;54550;48.838;8.828;2023-10-08T13:35:48;29.70;65.50
67750;DHT22;54550;48.838;8.828;2023-10-08T13:38:16;29.90;64.30
67750;DHT22;54550;48.838;8.828;2023-10-08T13:40:42;29.90;64.60
67750;DHT22;54550;48.838;8.828;2023-10-08T13:43:28;29.90;64.50
67750;DHT22;54550;48.838;8.828;2023-10-08T13:46:03;29.70;64.70
67750;DHT22;54550;48.838;8.828;2023-10-08T13:48:36;29.80;64.40
67750;DHT22;54550;48.838;8.828;2023-10-08T13:51:06;29.90;64.90
67750;DHT22;54550;48.838;8.828;2023-10-08T13:53:36;29.80;64.60
67750;DHT22;54550;48.838;8.828;2023-10-08T13:56:03;29.80;64.40
67750;DHT22;54550;48.838;8.828;2023-10-08T13:58:33;29.90;63.60
67750;DHT22;54550;48.838;8.828;2023-10-08T14:01:05;29.70;63.00
67750;DHT22;54550;48.838;8.828;2023-10-08T14:03:52;29.80;63.70
67750;DHT22;54550;48.838;8.828;2023-10-08T14:06:19;29.60;63.50
67750;DHT22;54550;48.838;8.828;2023-10-08T14:08:46;30.00;63.20
67750;DHT22;54550;48.838;8.828;2023-10-08T14:11:21;30.00;62.50
67750;DHT22;54550;48.838;8.828;2023-10-08T14:13:52;30.10;62.70
67750;DHT22;54550;48.838;8.828;2023-10-08T14:16:19;30.00;62.50
67750;DHT22;54550;48.838;8.828;2023-10-08T14:18:50;29.80;63.20
67750;DHT22;54550;48.838;8.828;2023-10-08T14:21:22;29.70;62.50
67750;DHT22;54550;48.838;8.828;2023-10-08T14:23:56;29.40;63.10
67750;DHT22;54550;48.838;8.828;2023-10-08T14:26:28;29.10;63.80
67750;DHT22;54550;48.838;8.828;2023-10-08T14:29:00;29.40;64.30
67750;DHT22;54550;48.838;8.828;2023-10-08T14:31:33;28.60;63.50
67750;DHT22;54550;48.838;8.828;2023-10-08T14:34:04;28.10;65.10
67750;DHT22;54550;48.838;8.828;2023-10-08T14:36:49;27.80;66.40
67750;DHT22;54550;48.838;8.828;2023-10-08T14:39:34;27.30;66.60
67750;DHT22;54550;48.838;8.828;2023-10-08T14:42:18;26.60;68.20
67750;DHT22;54550;48.838;8.828;2023-10-08T14:45:03;26.50;68.20
67750;DHT22;54550;48.838;8.828;2023-10-08T14:47:29;27.00;67.60
67750;DHT22;54550;48.838;8.828;2023-10-08T14:49:55;27.40;66.90
67750;DHT22;54550;48.838;8.828;2023-10-08T14:52:22;27.80;66.80
67750;DHT22;54550;48.838;8.828;2023-10-08T14:54:47;27.80;67.00
67750;DHT22;54550;48.838;8.828;2023-10-08T14:57:17;27.40;67.70
67750;DHT22;54550;48.838;8.828;2023-10-08T14:59:44;26.90;69.30
67750;DHT22;54550;48.838;8.828;2023-10-08T15:02:09;26.40;69.70
67750;DHT22;54550;48.838;8.828;2023-10-08T15:04:37;26.00;70.50
67750;DHT22;54550;48.838;8.828;2023-10-08T15:07:06;25.80;71.00
67750;DHT22;54550;48.838;8.828;2023-10-08T15:09:36;25.60;71.70
67750;DHT22;54550;48.838;8.828;2023-10-08T15:12:03;25.50;71.90
67750;DHT22;54550;48.838;8.828;2023-10-08T15:14:29;25.60;71.90
67750;DHT22;54550;48.838;8.828;2023-10-08T15:16:54;26.00;72.00
67750;DHT22;54550;48.838;8.828;2023-10-08T15:19:22;26.20;72.20
67750;DHT22;54550;48.838;8.828;2023-10-08T15:21:49;26.50;72.40
67750;DHT22;54550;48.838;8.828;2023-10-08T15:24:18;26.90;71.80
67750;DHT22;54550;48.838;8.828;2023-10-08T15:26:49;27.10;71.40
67750;DHT22;54550;48.838;8.828;2023-10-08T15:29:18;27.60;69.80
67750;DHT22;54550;48.838;8.828;2023-10-08T15:31:44;27.60;70.00
67750;DHT22;54550;48.838;8.828;2023-10-08T15:34:10;27.80;70.30
67750;DHT22;54550;48.838;8.828;2023-10-08T15:36:38;27.80;69.90
67750;DHT22;54550;48.838;8.828;2023-10-08T15:39:04;27.90;70.00
67750;DHT22;54550;48.838;8.828;2023-10-08T15:41:31;28.10;68.60
67750;DHT22;54550;48.838;8.828;2023-10-08T15:43:57;27.80;70.20
67750;DHT22;54550;48.838;8.828;2023-10-08T15:46:25;27.70;70.90
67750;DHT22;54550;48.838;8.828;2023-10-08T15:48:54;27.10;71.00
67750;DHT22;54550;48.838;8.828;2023-10-08T15:51:20;26.60;72.00
67750;DHT22;54550;48.838;8.828;2023-10-08T15:53:46;26.20;72.50
67750;DHT22;54550;48.838;8.828;2023-10-08T15:56:11;25.80;73.70
67750;DHT22;54550;48.838;8.828;2023-10-08T15:58:37;25.50;73.80
67750;DHT22;54550;48.838;8.828;2023-10-08T16:01:03;25.20;74.90